createdAt,value
2018-03-27T00:00:29.816Z,84.8
2018-03-27T00:01:39.882Z,84.76
2018-03-27T00:02:49.426Z,84.7
2018-03-27T00:03:59.213Z,84.85
2018-03-27T00:05:09.294Z,85.18
2018-03-27T00:06:19.482Z,84.76
2018-03-27T00:07:29.538Z,84.85
2018-03-27T00:08:39.626Z,84.95
2018-03-27T00:09:49.469Z,84.95
2018-03-27T00:10:59.523Z,85.04
2018-03-27T00:12:09.606Z,84.85
2018-03-27T00:13:19.397Z,84.95
2018-03-27T00:14:29.455Z,84.95
2018-03-27T00:15:39.274Z,85.04
2018-03-27T00:16:49.083Z,84.76
2018-03-27T00:17:58.879Z,84.85
2018-03-27T00:19:08.420Z,85.04
2018-03-27T00:20:18.227Z,85.18
2018-03-27T00:21:28.310Z,84.95
2018-03-27T00:22:38.372Z,85.14
2018-03-27T00:23:48.421Z,85.14
2018-03-27T00:24:58.220Z,84.95
2018-03-27T00:26:08.041Z,85.14
2018-03-27T00:27:17.834Z,84.95
2018-03-27T00:28:27.904Z,84.95
2018-03-27T00:29:37.706Z,85.14
2018-03-27T00:30:47.497Z,85.04
2018-03-27T00:31:57.629Z,84.95
2018-03-27T00:33:07.431Z,85.14
2018-03-27T00:34:17.501Z,84.85
2018-03-27T00:35:27.043Z,85.04
2018-03-27T00:36:37.097Z,85.14
2018-03-27T00:37:47.216Z,85.14
2018-03-27T00:38:57.084Z,84.85
2018-03-27T00:40:06.627Z,84.85
2018-03-27T00:41:16.750Z,84.95
2018-03-27T00:42:26.569Z,84.95
2018-03-27T00:43:36.122Z,84.95
2018-03-27T00:44:46.191Z,84.95
2018-03-27T00:45:56.252Z,84.76
2018-03-27T00:47:06.321Z,84.85
2018-03-27T00:48:16.388Z,84.95
2018-03-27T00:49:26.438Z,84.95
2018-03-27T00:50:35.974Z,85.14
2018-03-27T00:51:45.781Z,84.95
2018-03-27T00:52:55.856Z,84.95
2018-03-27T00:54:05.934Z,84.76
2018-03-27T00:55:16.070Z,84.95
2018-03-27T00:56:26.228Z,84.76
2018-03-27T00:57:36.293Z,85.04
2018-03-27T00:58:46.353Z,84.95
2018-03-27T00:59:55.879Z,85.14
2018-03-27T01:01:05.967Z,84.76
2018-03-27T01:02:16.077Z,84.66
2018-03-27T01:03:26.161Z,84.85
2018-03-27T01:04:35.968Z,84.85
2018-03-27T01:05:46.037Z,84.95
2018-03-27T01:06:56.115Z,85.14
2018-03-27T01:08:06.316Z,84.95
2018-03-27T01:09:16.387Z,84.95
2018-03-27T01:10:26.187Z,84.95
2018-03-27T01:11:36.250Z,85.24
2018-03-27T01:12:46.040Z,85.24
2018-03-27T01:13:55.833Z,85.04
2018-03-27T01:15:05.900Z,85.14
2018-03-27T01:16:15.967Z,85.33
2018-03-27T01:17:26.038Z,85.14
2018-03-27T01:18:36.111Z,85.33
2018-03-27T01:19:46.232Z,85.24
2018-03-27T01:20:56.030Z,85.14
2018-03-27T01:22:06.072Z,84.95
2018-03-27T01:23:15.882Z,84.76
2018-03-27T01:24:25.418Z,84.95
2018-03-27T01:25:35.231Z,84.95
2018-03-27T01:26:45.042Z,84.85
2018-03-27T01:27:55.104Z,85.04
2018-03-27T01:29:05.167Z,85.24
2018-03-27T01:30:15.221Z,84.85
2018-03-27T01:31:25.305Z,85.24
2018-03-27T01:32:34.564Z,85.24
2018-03-27T01:33:44.629Z,85.33
2018-03-27T01:34:54.450Z,84.95
2018-03-27T01:36:04.251Z,85.04
2018-03-27T01:37:14.381Z,84.95
2018-03-27T01:38:24.195Z,85.04
2018-03-27T01:39:34.268Z,84.85
2018-03-27T01:40:44.081Z,84.85
2018-03-27T01:41:53.882Z,85.24
2018-03-27T01:43:03.960Z,85.04
2018-03-27T01:44:13.489Z,85.33
2018-03-27T01:45:23.295Z,85.33
2018-03-27T01:46:33.108Z,85.42
2018-03-27T01:47:42.914Z,84.85
2018-03-27T01:48:52.723Z,85.24
2018-03-27T01:50:02.524Z,85.61
2018-03-27T01:51:12.319Z,85.24
2018-03-27T01:52:22.393Z,85.52
2018-03-27T01:53:32.451Z,85.04
2018-03-27T01:54:42.250Z,85.24
2018-03-27T01:55:51.520Z,85.42
2018-03-27T01:57:01.324Z,85.33
2018-03-27T01:58:11.387Z,84.85
2018-03-27T01:59:21.189Z,85.61
2018-03-27T02:00:30.989Z,85.14
2018-03-27T02:01:40.781Z,85.71
2018-03-27T02:02:50.587Z,85.42
2018-03-27T02:03:59.848Z,85.42
2018-03-27T02:05:09.973Z,85.14
2018-03-27T02:06:20.177Z,85.61
2018-03-27T02:07:30.233Z,85.61
2018-03-27T02:08:40.035Z,85.52
2018-03-27T02:09:50.083Z,85.52
2018-03-27T02:11:00.148Z,85.33
2018-03-27T02:12:10.228Z,85.71
2018-03-27T02:13:20.026Z,85.71
2018-03-27T02:14:30.081Z,85.61
2018-03-27T02:15:40.148Z,85.61
2018-03-27T02:16:50.202Z,85.61
2018-03-27T02:18:00.286Z,85.33
2018-03-27T02:19:10.348Z,85.42
2018-03-27T02:20:20.158Z,85.52
2018-03-27T02:21:29.974Z,85.61
2018-03-27T02:22:40.038Z,85.52
2018-03-27T02:23:49.845Z,85.52
2018-03-27T02:24:59.382Z,85.52
2018-03-27T02:26:08.933Z,85.61
2018-03-27T02:27:19.017Z,85.52
2018-03-27T02:28:29.084Z,85.52
2018-03-27T02:29:39.194Z,85.61
2018-03-27T02:30:49.260Z,85.52
2018-03-27T02:31:59.358Z,85.61
2018-03-27T02:33:09.435Z,85.42
2018-03-27T02:34:19.538Z,85.04
2018-03-27T02:35:29.707Z,85.14
2018-03-27T02:36:39.768Z,85.71
2018-03-27T02:37:49.575Z,85.52
2018-03-27T02:38:59.381Z,85.42
2018-03-27T02:40:09.468Z,85.52
2018-03-27T02:41:19.272Z,85.33
2018-03-27T02:42:29.080Z,85.52
2018-03-27T02:43:39.162Z,85.42
2018-03-27T02:44:48.990Z,85.61
2018-03-27T02:45:58.830Z,85.52
2018-03-27T02:47:08.972Z,85.61
2018-03-27T02:48:18.804Z,85.52
2018-03-27T02:49:28.883Z,85.42
2018-03-27T02:50:38.696Z,85.71
2018-03-27T02:51:48.226Z,85.33
2018-03-27T02:52:58.050Z,85.42
2018-03-27T02:54:07.866Z,85.42
2018-03-27T02:55:17.946Z,85.71
2018-03-27T02:56:27.778Z,85.52
2018-03-27T02:57:37.926Z,85.61
2018-03-27T02:58:48.057Z,85.71
2018-03-27T02:59:58.136Z,85.33
2018-03-27T03:01:08.192Z,85.42
2018-03-27T03:02:18.282Z,85.33
2018-03-27T03:03:28.381Z,85.33
2018-03-27T03:04:38.522Z,85.14
2018-03-27T03:05:48.348Z,85.14
2018-03-27T03:37:39.699Z,81.04
2018-03-27T03:38:49.218Z,81.79
2018-03-27T03:39:59.012Z,82.27
2018-03-27T03:41:08.576Z,83.22
2018-03-27T03:42:18.631Z,84.01
2018-03-27T03:43:28.734Z,84.87
2018-03-27T03:44:38.528Z,85.53
2018-03-27T03:45:48.332Z,85.35
2018-03-27T03:46:58.131Z,86.01
2018-03-27T03:48:07.666Z,85.72
2018-03-27T03:49:17.730Z,86.15
2018-03-27T03:50:27.531Z,85.96
2018-03-27T03:51:37.326Z,86.15
2018-03-27T03:52:47.375Z,86.24
2018-03-27T03:53:57.173Z,86.05
2018-03-27T03:55:07.018Z,85.81
2018-03-27T03:56:16.535Z,86
2018-03-27T03:57:26.581Z,85.53
2018-03-27T03:58:36.658Z,86.1
2018-03-27T03:59:46.734Z,85.81
2018-03-27T04:00:56.282Z,85.53
2018-03-27T04:02:06.341Z,86
2018-03-27T04:03:16.394Z,85.76
2018-03-27T04:04:26.205Z,85.43
2018-03-27T04:05:36.268Z,86
2018-03-27T04:06:46.381Z,85.53
2018-03-27T04:07:56.168Z,85.53
2018-03-27T04:09:05.708Z,85.57
2018-03-27T04:10:15.515Z,85.47
2018-03-27T04:11:25.394Z,85.57
2018-03-27T04:12:35.517Z,85.76
2018-03-27T04:13:45.584Z,85.66
2018-03-27T04:14:55.660Z,85.57
2018-03-27T04:16:05.725Z,85.19
2018-03-27T04:17:15.515Z,85.57
2018-03-27T04:18:25.380Z,85.47
2018-03-27T04:19:35.168Z,85.28
2018-03-27T04:20:45.234Z,85.19
2018-03-27T04:21:55.024Z,85.47
2018-03-27T04:23:05.068Z,85.19
2018-03-27T04:24:14.858Z,85.47
2018-03-27T04:25:24.647Z,85.19
2018-03-27T04:26:34.781Z,85
2018-03-27T04:27:44.576Z,85.28
2018-03-27T04:28:54.639Z,85.19
2018-03-27T04:30:04.708Z,85.19
2018-03-27T04:31:14.512Z,85.19
2018-03-27T04:32:24.587Z,85.19
2018-03-27T04:33:34.372Z,85.19
2018-03-27T04:34:44.453Z,85.1
2018-03-27T04:35:54.243Z,85.57
2018-03-27T04:37:04.070Z,85.47
2018-03-27T04:38:13.869Z,85.19
2018-03-27T04:39:23.693Z,85.47
2018-03-27T04:40:33.485Z,85.57
2018-03-27T04:41:43.701Z,85.47
2018-03-27T04:42:53.802Z,85.42
2018-03-27T04:44:03.876Z,85.52
2018-03-27T04:45:13.947Z,85.52
2018-03-27T04:46:24.070Z,85.61
2018-03-27T04:47:34.152Z,85.52
2018-03-27T04:48:43.965Z,85.47
2018-03-27T04:49:53.229Z,85.33
2018-03-27T04:51:03.304Z,85.57
2018-03-27T04:52:13.102Z,85.76
2018-03-27T04:53:22.896Z,85.1
2018-03-27T04:54:32.692Z,85.47
2018-03-27T04:55:42.499Z,85.66
2018-03-27T04:56:52.040Z,85.14
2018-03-27T04:58:01.835Z,85.04
2018-03-27T04:59:11.443Z,85.14
2018-03-27T05:00:21.498Z,85.24
2018-03-27T05:01:31.288Z,85.24
2018-03-27T05:02:41.361Z,85.14
2018-03-27T05:03:51.409Z,84.95
2018-03-27T05:05:01.477Z,84.95
2018-03-27T05:06:11.008Z,84.85
2018-03-27T05:07:20.813Z,85.04
2018-03-27T05:08:30.351Z,84.85
2018-03-27T05:09:40.450Z,84.66
2018-03-27T05:10:50.516Z,84.85
2018-03-27T05:12:00.354Z,84.95
2018-03-27T05:13:09.938Z,84.85
2018-03-27T05:14:19.455Z,84.95
2018-03-27T05:15:29.237Z,84.95
2018-03-27T05:16:39.037Z,84.95
2018-03-27T05:17:49.128Z,84.76
2018-03-27T05:18:59.184Z,84.66
2018-03-27T05:20:09.240Z,85.04
2018-03-27T05:21:19.337Z,85.14
2018-03-27T05:22:29.397Z,84.66
2018-03-27T05:23:39.200Z,84.95
2018-03-27T05:24:49.262Z,84.85
2018-03-27T05:25:59.328Z,84.85
2018-03-27T05:27:09.404Z,84.85
2018-03-27T05:28:19.468Z,85.24
2018-03-27T05:29:29.536Z,85.04
2018-03-27T05:30:39.595Z,85.04
2018-03-27T05:31:49.658Z,85.14
2018-03-27T05:32:59.712Z,85.04
2018-03-27T05:34:09.828Z,84.95
2018-03-27T05:35:19.897Z,85.14
2018-03-27T05:36:29.980Z,85.18
2018-03-27T05:37:40.056Z,85.28
2018-03-27T05:38:49.603Z,85.08
2018-03-27T05:39:59.669Z,85.08
2018-03-27T05:41:09.746Z,85.18
2018-03-27T05:42:19.815Z,85.28
2018-03-27T05:43:29.608Z,85.18
2018-03-27T05:44:39.131Z,85.18
2018-03-27T05:45:49.202Z,85.08
2018-03-27T05:46:58.546Z,84.89
2018-03-27T05:48:08.618Z,85.28
2018-03-27T05:49:18.428Z,84.89
2018-03-27T05:50:28.229Z,85.08
2018-03-27T05:51:38.342Z,85.08
2018-03-27T05:52:48.484Z,85.18
2018-03-27T05:53:58.558Z,84.99
2018-03-27T05:55:08.362Z,85.08
2018-03-27T05:56:18.440Z,84.99
2018-03-27T05:57:28.236Z,84.99
2018-03-27T05:58:38.057Z,85.08
2018-03-27T05:59:47.589Z,85.08
2018-03-27T06:00:57.649Z,84.89
2018-03-27T06:02:07.703Z,85.47
2018-03-27T06:03:17.792Z,85.28
2018-03-27T06:04:27.585Z,85.08
2018-03-27T06:05:37.649Z,84.89
2018-03-27T06:06:47.706Z,85.28
2018-03-27T06:07:57.505Z,85.28
2018-03-27T06:09:07.304Z,85.08
2018-03-27T06:10:17.384Z,84.8
2018-03-27T06:11:27.443Z,84.8
2018-03-27T06:12:36.987Z,84.99
2018-03-27T06:13:46.790Z,85.03
2018-03-27T06:14:56.604Z,84.94
2018-03-27T06:16:06.681Z,84.75
2018-03-27T06:17:16.479Z,84.75
2018-03-27T06:18:26.286Z,84.94
2018-03-27T06:19:36.087Z,84.46
2018-03-27T06:20:46.214Z,85.03
2018-03-27T06:21:56.277Z,85.03
2018-03-27T06:23:06.106Z,84.75
2018-03-27T06:24:15.924Z,85.03
2018-03-27T06:25:25.995Z,84.84
2018-03-27T06:26:35.858Z,85.32
2018-03-27T06:27:45.466Z,85.03
2018-03-27T06:28:55.536Z,85.03
2018-03-27T06:30:05.339Z,85.51
2018-03-27T06:31:15.132Z,84.84
2018-03-27T06:32:25.244Z,84.84
2018-03-27T06:33:35.303Z,85.03
2018-03-27T06:34:45.387Z,85.03
2018-03-27T06:35:55.181Z,84.94
2018-03-27T06:37:05.266Z,84.94
2018-03-27T06:38:15.327Z,85.22
2018-03-27T06:39:25.123Z,85.03
2018-03-27T06:40:35.270Z,85.03
2018-03-27T06:41:45.081Z,85.03
2018-03-27T06:42:55.151Z,84.94
2018-03-27T06:44:05.236Z,84.75
2018-03-27T06:45:15.047Z,84.75
2018-03-27T06:46:25.124Z,84.75
2018-03-27T06:47:35.212Z,84.46
2018-03-27T06:48:44.500Z,84.75
2018-03-27T06:49:54.305Z,84.75
2018-03-27T06:51:04.358Z,84.75
2018-03-27T06:52:14.434Z,84.75
2018-03-27T06:53:24.482Z,84.94
2018-03-27T06:54:34.286Z,84.84
2018-03-27T06:55:43.557Z,85.22
2018-03-27T06:56:53.091Z,85.03
2018-03-27T06:58:03.153Z,85.22
2018-03-27T06:59:13.217Z,85.13
2018-03-27T07:00:23.289Z,84.75
2018-03-27T07:01:33.407Z,85.22
2018-03-27T07:02:43.564Z,85.13
2018-03-27T07:03:53.688Z,85.51
2018-03-27T07:05:03.842Z,85.22
2018-03-27T07:06:14.057Z,85.13
2018-03-27T07:07:24.206Z,84.79
2018-03-27T07:08:33.787Z,84.88
2018-03-27T07:09:43.610Z,84.79
2018-03-27T07:10:53.465Z,84.79
2018-03-27T07:12:03.573Z,84.88
2018-03-27T07:13:13.729Z,85.08
2018-03-27T07:14:23.853Z,85.08
2018-03-27T07:15:34.076Z,84.98
2018-03-27T07:16:44.191Z,85.08
2018-03-27T07:17:54.338Z,84.98
2018-03-27T07:19:04.214Z,84.88
2018-03-27T07:20:14.423Z,84.79
2018-03-27T07:21:24.552Z,84.98
2018-03-27T07:22:34.616Z,84.41
2018-03-27T07:23:44.691Z,84.41
2018-03-27T07:24:54.733Z,84.31
2018-03-27T07:26:04.832Z,84.5
2018-03-27T07:27:14.901Z,84.12
2018-03-27T07:28:24.963Z,84.12
2018-03-27T07:29:34.570Z,83.97
2018-03-27T07:30:44.683Z,83.88
2018-03-27T07:31:54.495Z,83.78
2018-03-27T07:33:04.564Z,83.78
2018-03-27T07:34:14.656Z,83.97
2018-03-27T07:35:24.198Z,83.88
2018-03-27T07:36:34.011Z,84.16
2018-03-27T07:37:43.810Z,84.74
2018-03-27T07:38:53.918Z,84.55
2018-03-27T07:40:03.877Z,84.45
2018-03-27T07:41:13.958Z,84.5
2018-03-27T07:42:24.043Z,84.36
2018-03-27T07:43:34.117Z,84.64
2018-03-27T07:44:44.192Z,84.45
2018-03-27T07:45:54.292Z,84.74
2018-03-27T07:47:04.354Z,84.36
2018-03-27T07:48:14.411Z,83.97
2018-03-27T07:49:24.548Z,83.97
2018-03-27T07:50:34.746Z,84.36
2018-03-27T07:51:44.863Z,84.16
2018-03-27T07:52:55.247Z,83.73
2018-03-27T07:54:05.381Z,84.36
2018-03-27T07:55:15.473Z,83.73
2018-03-27T07:56:25.484Z,83.73
2018-03-27T07:57:35.576Z,84.11
2018-03-27T07:58:45.680Z,84.4
2018-03-27T07:59:56.055Z,84.4
2018-03-27T08:01:06.145Z,84.26
2018-03-27T08:02:16.240Z,83.73
2018-03-27T08:03:26.076Z,84.11
2018-03-27T08:04:36.009Z,83.64
2018-03-27T08:05:46.100Z,83.25
2018-03-27T08:06:56.188Z,83.35
2018-03-27T08:08:06.274Z,83.73
2018-03-27T08:09:16.381Z,84.4
2018-03-27T08:10:26.456Z,84.01
2018-03-27T08:11:36.278Z,84.11
2018-03-27T08:12:46.356Z,83.83
2018-03-27T08:13:56.446Z,84.11
2018-03-27T08:15:06.521Z,84.4
2018-03-27T08:16:16.604Z,83.64
2018-03-27T08:17:26.448Z,83.54
2018-03-27T08:18:36.659Z,83.44
2018-03-27T08:19:46.866Z,83.64
2018-03-27T08:20:56.793Z,83.77
2018-03-27T08:22:06.868Z,83.2
2018-03-27T08:23:17.226Z,83.67
2018-03-27T08:24:27.455Z,83.39
2018-03-27T08:25:37.915Z,82.91
2018-03-27T08:26:47.916Z,82.29
2018-03-27T08:27:58.289Z,82.19
2018-03-27T08:29:08.594Z,82.61
2018-03-27T08:30:18.841Z,82.71
2018-03-27T08:31:28.659Z,82.32
2018-03-27T08:32:38.940Z,82.42
2018-03-27T08:33:49.071Z,82.42
2018-03-27T08:34:59.167Z,82.04
2018-03-27T08:36:09.603Z,82.32
2018-03-27T08:37:20.125Z,82.9
2018-03-27T08:43:48.548Z,82.32
2018-03-27T08:44:58.648Z,82.46
2018-03-27T08:46:08.477Z,83.33
2018-03-27T08:47:18.571Z,82.61
2018-03-27T08:48:28.652Z,83.13
2018-03-27T08:49:38.522Z,82.28
2018-03-27T08:50:48.581Z,82.75
2018-03-27T08:51:58.135Z,82.75
2018-03-27T08:53:08.228Z,82.7
2018-03-27T08:54:18.324Z,82.31
2018-03-27T08:55:28.456Z,81.93
2018-03-27T08:56:38.558Z,82.22
2018-03-27T08:57:48.131Z,82.22
2018-03-27T08:58:57.948Z,82.31
2018-03-27T09:00:07.769Z,82.07
2018-03-27T09:01:17.840Z,82.45
2018-03-27T09:02:27.917Z,82.26
2018-03-27T09:03:37.730Z,82.45
2018-03-27T09:04:47.977Z,82.17
2018-03-27T09:05:58.040Z,82.2
2018-03-27T09:07:07.936Z,82.35
2018-03-27T09:08:18.020Z,83.22
2018-03-27T09:09:28.096Z,82.54
2018-03-27T09:10:38.182Z,82.78
2018-03-27T09:11:48.014Z,82.45
2018-03-27T09:12:58.087Z,82.45
2018-03-27T09:14:07.686Z,83.65
2018-03-27T09:15:17.278Z,83.75
2018-03-27T09:16:26.838Z,83.75
2018-03-27T09:17:36.383Z,83.84
2018-03-27T09:18:46.471Z,83.75
2018-03-27T09:19:56.017Z,83.56
2018-03-27T09:21:05.859Z,83.03
2018-03-27T09:22:15.936Z,82.54
2018-03-27T09:23:26.097Z,82.35
2018-03-27T09:24:35.906Z,82.78
2018-03-27T09:25:45.974Z,82.49
2018-03-27T09:26:56.062Z,82.3
2018-03-27T09:28:06.161Z,82.78
2018-03-27T09:29:15.973Z,82.3
2018-03-27T09:30:26.104Z,82.78
2018-03-27T09:31:36.167Z,82.26
2018-03-27T09:32:46.242Z,82.78
2018-03-27T09:33:56.334Z,82.68
2018-03-27T09:35:05.891Z,82.87
2018-03-27T09:36:16.002Z,82.68
2018-03-27T09:37:25.843Z,82.73
2018-03-27T09:38:35.916Z,82.06
2018-03-27T09:39:45.997Z,81.77
2018-03-27T09:40:55.830Z,82.06
2018-03-27T09:42:05.927Z,81.81
2018-03-27T09:43:15.473Z,81.62
2018-03-27T09:44:25.271Z,81.37
2018-03-27T09:45:35.254Z,81.27
2018-03-27T09:46:45.374Z,81.08
2018-03-27T09:47:55.253Z,80.7
2018-03-27T09:49:05.366Z,81.12
2018-03-27T09:50:15.502Z,81.6
2018-03-27T09:51:25.620Z,81.89
2018-03-27T09:52:35.714Z,82.18
2018-03-27T09:53:45.519Z,82.42
2018-03-27T09:54:55.347Z,82.52
2018-03-27T09:56:05.166Z,83
2018-03-27T09:57:14.976Z,82.62
2018-03-27T09:58:24.814Z,82.48
2018-03-27T09:59:34.991Z,82.48
2018-03-27T10:00:44.808Z,83.15
2018-03-27T10:01:54.639Z,82.62
2018-03-27T10:03:04.464Z,82.42
2018-03-27T10:04:14.313Z,82.42
2018-03-27T10:05:24.135Z,82.42
2018-03-27T10:06:34.207Z,81.66
2018-03-27T10:07:44.037Z,82.18
2018-03-27T10:08:53.929Z,81.6
2018-03-27T10:10:03.808Z,81.51
2018-03-27T10:11:13.406Z,81.7
2018-03-27T10:12:23.249Z,81.7
2018-03-27T10:13:33.332Z,82.08
2018-03-27T10:14:42.883Z,81.54
2018-03-27T10:15:53.043Z,80.91
2018-03-27T10:17:02.929Z,81.68
2018-03-27T10:18:12.765Z,81.97
2018-03-27T10:19:22.578Z,82.74
2018-03-27T10:20:32.403Z,82.89
2018-03-27T10:21:42.489Z,83.08
2018-03-27T10:22:52.101Z,83.42
2018-03-27T10:24:01.661Z,83.42
2018-03-27T10:25:11.743Z,83.76
2018-03-27T10:26:21.302Z,83.38
2018-03-27T10:27:31.149Z,83.86
2018-03-27T10:28:41.257Z,83.95
2018-03-27T10:29:51.079Z,83.19
2018-03-27T10:31:01.163Z,83.09
2018-03-27T10:32:11.236Z,83.09
2018-03-27T10:33:21.300Z,82.42
2018-03-27T10:34:31.025Z,82.71
2018-03-27T10:35:41.128Z,82.62
2018-03-27T10:36:50.952Z,81.6
2018-03-27T10:38:01.296Z,81.79
2018-03-27T10:39:11.392Z,81.51
2018-03-27T10:40:21.545Z,81.84
2018-03-27T10:41:31.605Z,80.68
2018-03-27T10:42:41.412Z,80.34
2018-03-27T10:43:51.503Z,80.28
2018-03-27T10:45:01.314Z,80.47
2018-03-27T10:46:11.427Z,80.38
2018-03-27T10:47:21.253Z,79.99
2018-03-27T10:48:31.082Z,79.65
2018-03-27T10:49:41.192Z,79.75
2018-03-27T10:50:51.015Z,80.32
2018-03-27T10:52:00.826Z,80.51
2018-03-27T10:53:10.941Z,80.51
2018-03-27T10:54:20.551Z,80.42
2018-03-27T10:55:30.634Z,80.42
2018-03-27T10:56:40.728Z,80.51
2018-03-27T10:57:50.570Z,80.51
2018-03-27T10:59:00.113Z,80.36
2018-03-27T11:00:10.192Z,80.46
2018-03-27T11:01:20.027Z,80.75
2018-03-27T11:02:29.846Z,81.04
2018-03-27T11:03:39.950Z,81.32
2018-03-27T11:04:49.279Z,81.48
2018-03-27T11:05:59.393Z,82.15
2018-03-27T11:07:09.204Z,81.86
2018-03-27T11:08:19.040Z,81.67
2018-03-27T11:09:29.124Z,82.49
2018-03-27T11:10:38.661Z,82.78
2018-03-27T11:11:48.549Z,82.74
2018-03-27T11:12:58.647Z,83.51
2018-03-27T11:14:08.193Z,83.85
2018-03-27T11:15:18.259Z,84.14
2018-03-27T11:16:28.065Z,83.65
2018-03-27T11:17:37.906Z,83.91
2018-03-27T11:18:48.007Z,83.18
2018-03-27T11:19:57.832Z,82.89
2018-03-27T11:21:07.933Z,82.12
2018-03-27T11:22:18.004Z,82.54
2018-03-27T11:23:28.089Z,81.78
2018-03-27T11:24:38.178Z,81.15
2018-03-27T11:25:47.988Z,80.96
2018-03-27T11:26:57.810Z,80.96
2018-03-27T11:28:07.640Z,81.24
2018-03-27T11:29:17.599Z,80.86
2018-03-27T11:30:27.473Z,81.34
2018-03-27T11:31:37.814Z,81.15
2018-03-27T11:32:47.639Z,81.63
2018-03-27T11:33:57.719Z,81.97
2018-03-27T11:35:07.548Z,82.26
2018-03-27T11:36:17.356Z,81.97
2018-03-27T11:37:27.459Z,81.97
2018-03-27T11:38:37.028Z,82.45
2018-03-27T11:39:47.143Z,82.21
2018-03-27T11:40:57.226Z,82.6
2018-03-27T11:42:07.318Z,82.89
2018-03-27T11:43:17.653Z,82.41
2018-03-27T11:44:27.493Z,82.6
2018-03-27T11:45:37.582Z,82.6
2018-03-27T11:46:47.486Z,82.89
2018-03-27T11:47:57.580Z,82.51
2018-03-27T11:49:07.684Z,82.6
2018-03-27T11:50:17.313Z,82.7
2018-03-27T11:51:27.406Z,82.41
2018-03-27T11:52:37.237Z,82.51
2018-03-27T11:53:47.325Z,81.93
2018-03-27T11:54:57.417Z,81.84
2018-03-27T11:56:06.983Z,81.93
2018-03-27T11:57:17.087Z,81.93
2018-03-27T11:58:26.913Z,81.78
2018-03-27T11:59:36.720Z,82.21
2018-03-27T12:00:46.827Z,81.64
2018-03-27T12:01:56.634Z,82.51
2018-03-27T12:03:06.444Z,82.6
2018-03-27T12:04:16.521Z,82.31
2018-03-27T12:05:26.609Z,81.64
2018-03-27T12:06:36.175Z,81.93
2018-03-27T12:07:45.729Z,82.51
2018-03-27T12:08:55.291Z,81.74
2018-03-27T12:10:05.159Z,82.21
2018-03-27T12:11:15.223Z,82.7
2018-03-27T12:12:25.321Z,82.85
2018-03-27T12:13:35.137Z,82.94
2018-03-27T12:14:44.693Z,83.14
2018-03-27T12:15:54.768Z,83.14
2018-03-27T12:17:04.615Z,82.75
2018-03-27T12:18:14.148Z,82.27
2018-03-27T12:19:23.979Z,82.27
2018-03-27T12:20:33.797Z,81.79
2018-03-27T12:21:43.652Z,82.12
2018-03-27T12:22:53.468Z,81.74
2018-03-27T12:24:03.339Z,81.45
2018-03-27T12:25:12.905Z,81.74
2018-03-27T12:26:23.025Z,81.87
2018-03-27T12:27:32.629Z,81.01
2018-03-27T12:28:42.714Z,81.2
2018-03-27T12:29:52.286Z,81.01
2018-03-27T12:31:02.367Z,81.49
2018-03-27T12:32:12.180Z,81.49
2018-03-27T12:33:22.246Z,81.3
2018-03-27T12:34:32.068Z,81.59
2018-03-27T12:35:41.609Z,81.3
2018-03-27T12:36:51.465Z,81.97
2018-03-27T12:38:01.380Z,82.07
2018-03-27T12:39:11.513Z,81.45
2018-03-27T12:40:20.818Z,81.93
2018-03-27T12:41:30.896Z,81.78
2018-03-27T12:42:40.730Z,81.59
2018-03-27T12:43:50.810Z,82.26
2018-03-27T12:45:00.898Z,82.26
2018-03-27T12:46:10.474Z,81.68
2018-03-27T12:47:20.297Z,81.97
2018-03-27T12:48:30.400Z,81.97
2018-03-27T12:49:40.221Z,81.97
2018-03-27T12:50:49.825Z,82.26
2018-03-27T12:51:59.898Z,82.54
2018-03-27T12:53:09.959Z,82.64
2018-03-27T12:54:20.250Z,82.74
2018-03-27T12:55:30.347Z,82.35
2018-03-27T12:56:39.894Z,82.35
2018-03-27T12:57:49.186Z,82.54
2018-03-27T12:58:59.028Z,82.35
2018-03-27T13:00:08.953Z,82.54
2018-03-27T13:01:19.038Z,82.89
2018-03-27T13:02:28.918Z,82.6
2018-03-27T13:03:38.714Z,82.98
2018-03-27T13:04:48.791Z,83.14
2018-03-27T13:05:58.868Z,83.42
2018-03-27T13:07:08.960Z,83.76
2018-03-27T13:08:19.103Z,83.42
2018-03-27T13:09:28.936Z,82.94
2018-03-27T13:10:39.106Z,83.42
2018-03-27T13:11:48.418Z,83.23
2018-03-27T13:12:58.051Z,83.67
2018-03-27T13:14:08.195Z,83.09
2018-03-27T13:15:17.754Z,83.14
2018-03-27T13:16:27.572Z,83.19
2018-03-27T13:17:37.689Z,83.76
2018-03-27T13:18:47.609Z,83.19
2018-03-27T13:19:57.474Z,83.38
2018-03-27T13:21:07.063Z,82.81
2018-03-27T13:22:16.915Z,82.81
2018-03-27T13:23:26.739Z,82.52
2018-03-27T13:24:36.801Z,82.62
2018-03-27T13:25:46.880Z,82.18
2018-03-27T13:26:56.782Z,81.54
2018-03-27T13:28:06.852Z,81.64
2018-03-27T13:29:16.940Z,81.93
2018-03-27T13:30:27.035Z,81.64
2018-03-27T13:31:37.136Z,82.41
2018-03-27T13:32:47.221Z,82.37
2018-03-27T13:33:57.279Z,82.85
2018-03-27T13:35:07.374Z,82.85
2018-03-27T13:36:17.226Z,82.6
2018-03-27T13:37:26.570Z,82.79
2018-03-27T13:38:36.412Z,81.64
2018-03-27T13:39:46.501Z,82.21
2018-03-27T13:40:57.114Z,82.85
2018-03-27T13:42:08.001Z,83.04
2018-03-27T13:43:17.858Z,82.75
2018-03-27T13:44:27.966Z,83.04
2018-03-27T13:45:38.512Z,82.75
2018-03-27T13:46:52.061Z,83.42
2018-03-27T13:48:06.103Z,83.14
2018-03-27T13:49:18.034Z,83.48
2018-03-27T13:50:31.173Z,83.76
2018-03-27T13:51:44.157Z,83.86
2018-03-27T13:52:54.792Z,83.92
2018-03-27T13:54:04.934Z,84.11
2018-03-27T13:55:15.015Z,84.58
2018-03-27T13:56:24.839Z,84.58
2018-03-27T13:57:34.674Z,84.88
2018-03-27T13:58:44.502Z,84.83
2018-03-27T13:59:54.610Z,85.02
2018-03-27T14:01:04.513Z,85.31
2018-03-27T14:02:14.590Z,84.69
2018-03-27T14:03:24.413Z,85.27
2018-03-27T14:04:34.217Z,85.17
2018-03-27T14:05:43.779Z,85.27
2018-03-27T14:06:53.879Z,85.17
2018-03-27T14:08:03.688Z,85.13
2018-03-27T14:09:13.540Z,85.03
2018-03-27T14:10:23.125Z,84.94
2018-03-27T14:11:32.933Z,84.75
2018-03-27T14:12:42.498Z,85.03
2018-03-27T14:13:52.597Z,85.09
2018-03-27T14:15:02.632Z,84.94
2018-03-27T14:16:12.741Z,84.99
2018-03-27T14:17:23.080Z,84.89
2018-03-27T14:18:33.230Z,85.09
2018-03-27T14:19:43.073Z,85.38
2018-03-27T14:20:53.182Z,85.14
2018-03-27T14:22:03.009Z,85.24
2018-03-27T14:23:12.846Z,85.1
2018-03-27T14:24:22.722Z,85.19
2018-03-27T14:25:32.010Z,85.72
2018-03-27T14:26:41.829Z,85.72
2018-03-27T14:27:51.916Z,85.63
2018-03-27T14:29:01.725Z,85.91
2018-03-27T14:30:11.574Z,85.82
2018-03-27T14:31:21.137Z,85.15
2018-03-27T14:32:31.224Z,85.21
2018-03-27T14:33:41.315Z,85.21
2018-03-27T14:34:51.139Z,85.11
2018-03-27T14:36:00.964Z,85.01
2018-03-27T14:37:10.860Z,85.01
2018-03-27T14:38:21.136Z,85.21
2018-03-27T14:39:30.966Z,85.06
2018-03-27T14:40:41.081Z,85.16
2018-03-27T14:41:50.935Z,85.25
2018-03-27T14:43:01.038Z,85.64
2018-03-27T14:44:11.118Z,85.12
2018-03-27T14:45:20.950Z,85.31
2018-03-27T14:46:31.141Z,84.92
2018-03-27T14:47:41.249Z,85.12
2018-03-27T14:48:51.329Z,84.92
2018-03-27T14:50:00.902Z,85.08
2018-03-27T14:51:10.998Z,85.08
2018-03-27T14:52:20.824Z,84.88
2018-03-27T14:53:31.214Z,85.17
2018-03-27T14:54:41.525Z,84.84
2018-03-27T14:55:51.802Z,85.13
2018-03-27T14:57:01.894Z,85.41
2018-03-27T14:58:11.735Z,85.85
2018-03-27T14:59:21.522Z,85.75
2018-03-27T15:00:32.026Z,85.28
2018-03-27T15:01:41.074Z,85.66
2018-03-27T15:02:50.876Z,84.99
2018-03-27T15:04:01.156Z,84.95
2018-03-27T15:05:11.493Z,84.95
2018-03-27T15:06:21.574Z,84.85
2018-03-27T15:07:31.681Z,85.14
2018-03-27T15:08:41.766Z,84.95
2018-03-27T15:09:51.859Z,84.85
2018-03-27T15:11:02.004Z,84.76
2018-03-27T15:12:12.085Z,84.66
2018-03-27T15:13:22.367Z,84.66
2018-03-27T15:14:32.210Z,84.38
2018-03-27T15:15:42.755Z,84.28
2018-03-27T15:16:52.566Z,84.28
2018-03-27T15:18:02.157Z,84.56
2018-03-27T15:19:12.168Z,83.95
2018-03-27T15:20:22.067Z,83.58
2018-03-27T15:21:32.506Z,84.19
2018-03-27T15:22:42.743Z,83.52
2018-03-27T15:23:52.825Z,83.29
2018-03-27T15:25:03.109Z,83.23
2018-03-27T15:26:13.424Z,83.33
2018-03-27T15:27:23.771Z,83.42
2018-03-27T15:28:33.372Z,83.23
2018-03-27T15:29:43.875Z,82.57
2018-03-27T15:30:54.215Z,82.48
2018-03-27T15:32:04.537Z,82.19
2018-03-27T15:33:14.616Z,82.38
2018-03-27T15:34:24.624Z,82.14
2018-03-27T15:35:34.481Z,82.61
2018-03-27T15:36:44.443Z,82.32
2018-03-27T15:37:54.511Z,82.23
2018-03-27T15:39:04.855Z,81.76